Time;durP1;ratioP1;P1;durP2;ratioP2;P2;SDS_P1;SDS_P2;PMS_P1;PMS_P2;Temp;Humidity;BMP_temperature;BMP_pressure;BME280_temperature;BME280_humidity;BME280_pressure;Samples;Min_cycle;Max_cycle;Signal;HPM_P1;HPM_P2
2023/11/24 00:02:18;;;;;;;1.73;1.50;;;;;;;7.49;97.24;95379.00;5060570;28;20205;-79
2023/11/24 00:04:43;;;;;;;2.13;1.30;;;;;;;7.40;97.25;95375.44;5064845;28;20275;-79
2023/11/24 00:07:09;;;;;;;1.83;1.20;;;;;;;7.45;96.50;95378.47;5060374;28;20261;-79
2023/11/24 00:09:39;;;;;;;1.27;1.10;;;;;;;7.37;97.22;95384.28;5072770;28;20185;-79
2023/11/24 00:12:07;;;;;;;2.63;1.40;;;;;;;7.50;96.54;95378.84;5066713;28;20197;-80
2023/11/24 00:14:33;;;;;;;2.37;1.10;;;;;;;7.29;98.02;95367.81;5059312;28;20177;-79
2023/11/24 00:16:58;;;;;;;1.50;1.40;;;;;;;7.28;97.79;95367.00;5084782;28;20240;-79
2023/11/24 00:19:29;;;;;;;1.33;1.23;;;;;;;7.47;96.81;95347.31;5087437;28;20184;-79
2023/11/24 00:21:57;;;;;;;1.30;1.03;;;;;;;7.39;97.00;95353.97;5070241;28;20739;-79
2023/11/24 00:24:43;;;;;;;1.63;1.00;;;;;;;7.42;96.72;95360.66;5084578;28;20212;-79
2023/11/24 00:27:13;;;;;;;0.87;0.87;;;;;;;7.45;95.77;95347.47;5043866;28;20189;-79
2023/11/24 00:29:42;;;;;;;1.13;1.00;;;;;;;7.39;97.19;95330.72;5064785;28;20182;-79
2023/11/24 00:32:07;;;;;;;0.90;0.90;;;;;;;7.43;97.09;95325.28;5044082;28;20336;-79
2023/11/24 00:34:38;;;;;;;0.90;0.90;;;;;;;7.17;98.08;95327.56;5070586;28;20900;-78
2023/11/24 00:37:05;;;;;;;0.97;0.87;;;;;;;7.29;97.80;95305.81;5045611;28;20197;-79
2023/11/24 00:39:32;;;;;;;1.00;0.90;;;;;;;7.26;98.46;95306.09;5068795;28;20185;-79
2023/11/24 00:42:01;;;;;;;1.43;1.10;;;;;;;7.38;97.08;95315.34;5068585;28;20221;-78
2023/11/24 00:44:26;;;;;;;1.00;0.90;;;;;;;7.28;97.70;95314.53;5070556;28;20208;-79
2023/11/24 00:46:54;;;;;;;0.90;0.80;;;;;;;7.40;97.62;95310.84;5066515;28;20256;-79
2023/11/24 00:49:26;;;;;;;0.97;0.90;;;;;;;7.23;98.27;95288.25;5088282;28;20184;-78
2023/11/24 00:51:54;;;;;;;1.20;0.73;;;;;;;7.34;97.90;95291.56;5071585;28;20265;-79
2023/11/24 00:54:23;;;;;;;1.30;0.90;;;;;;;7.39;97.61;95265.31;5052449;28;20212;-79
2023/11/24 00:56:50;;;;;;;2.70;0.80;;;;;;;7.51;96.69;95277.16;5040419;28;20738;-79
2023/11/24 00:59:21;;;;;;;0.80;0.80;;;;;;;7.46;97.58;95291.44;5080597;28;20199;-79
2023/11/24 01:01:47;;;;;;;0.90;0.80;;;;;;;7.54;97.35;95283.81;5046034;28;20205;-79
2023/11/24 01:04:19;;;;;;;1.33;1.10;;;;;;;7.50;96.97;95283.25;5061193;28;20228;-79
2023/11/24 01:07:11;;;;;;;1.10;1.00;;;;;;;7.61;96.79;95280.56;5081714;28;20189;-79
2023/11/24 01:09:40;;;;;;;0.97;0.93;;;;;;;7.47;97.29;95265.47;5074418;28;20680;-78
2023/11/24 01:12:08;;;;;;;1.27;1.17;;;;;;;7.58;97.13;95280.81;5062566;28;20309;-79
2023/11/24 01:14:34;;;;;;;0.97;0.97;;;;;;;7.62;97.30;95281.38;5061486;28;20188;-79
2023/11/24 01:17:07;;;;;;;1.20;1.10;;;;;;;7.62;97.11;95271.03;5042209;28;20355;-79
2023/11/24 01:19:38;;;;;;;1.33;1.20;;;;;;;7.66;97.51;95288.72;5052673;28;20615;-78
2023/11/24 01:22:12;;;;;;;1.40;1.20;;;;;;;7.62;97.50;95296.88;5043857;28;20386;-79
2023/11/24 01:24:41;;;;;;;1.40;0.83;;;;;;;7.58;99.17;95285.97;5063611;28;20216;-80
2023/11/24 01:27:14;;;;;;;1.37;0.90;;;;;;;7.43;99.55;95289.94;5042745;28;20196;-79
2023/11/24 01:29:54;;;;;;;1.00;1.00;;;;;;;7.53;98.58;95298.50;5068842;28;20278;-79
2023/11/24 01:32:30;;;;;;;3.93;1.53;;;;;;;7.61;98.55;95274.59;5069419;28;20210;-78
2023/11/24 01:34:58;;;;;;;2.43;1.30;;;;;;;7.49;99.43;95275.66;5041132;28;20243;-78
2023/11/24 01:37:44;;;;;;;2.67;1.50;;;;;;;7.54;99.04;95284.63;5061576;28;20196;-79
2023/11/24 01:40:16;;;;;;;4.07;1.80;;;;;;;7.51;100.00;95263.41;5061639;28;20200;-80
2023/11/24 01:42:46;;;;;;;1.13;1.00;;;;;;;7.38;100.00;95292.91;5069669;28;20270;-77
2023/11/24 01:45:15;;;;;;;3.20;2.17;;;;;;;7.64;99.72;95274.31;5045505;28;20194;-79
2023/11/24 01:48:11;;;;;;;1.93;1.50;;;;;;;7.64;99.01;95274.31;5058229;28;20276;-78
2023/11/24 01:50:40;;;;;;;1.87;1.77;;;;;;;7.53;99.84;95272.66;5041514;28;20173;-78
2023/11/24 01:53:06;;;;;;;5.03;2.20;;;;;;;7.42;100.00;95254.72;5043121;28;20208;-78
2023/11/24 01:55:44;;;;;;;1.60;1.50;;;;;;;7.49;100.00;95268.72;5061688;28;20196;-79
2023/11/24 01:58:14;;;;;;;1.70;1.60;;;;;;;7.57;100.00;95249.94;5062425;28;20279;-78
2023/11/24 02:00:48;;;;;;;1.77;1.50;;;;;;;7.56;100.00;95246.56;5047100;28;20284;-79
2023/11/24 02:03:16;;;;;;;1.87;1.60;;;;;;;7.62;100.00;95246.00;5053559;28;20563;-79
2023/11/24 02:05:54;;;;;;;1.70;1.60;;;;;;;7.50;100.00;95251.44;5063785;28;20192;-79
2023/11/24 02:08:25;;;;;;;3.37;2.00;;;;;;;7.41;100.00;95268.56;5070072;28;20249;-78
2023/11/24 02:13:54;;;;;;;1.60;1.47;;;;;;;7.50;100.00;95233.34;5077621;28;20276;-78
2023/11/24 02:16:26;;;;;;;1.60;1.23;;;;;;;7.47;100.00;95246.56;5052460;28;20247;-78
2023/11/24 02:18:54;;;;;;;1.23;1.13;;;;;;;7.62;100.00;95253.78;5080860;28;20192;-79
2023/11/24 02:21:27;;;;;;;1.20;1.00;;;;;;;7.55;100.00;95237.16;5080795;28;20219;-79
2023/11/24 02:23:59;;;;;;;1.33;1.23;;;;;;;7.60;100.00;95227.25;5068534;28;20257;-79
2023/11/24 02:26:30;;;;;;;0.83;0.80;;;;;;;7.58;100.00;95231.72;5055698;28;20203;-79
2023/11/24 02:29:12;;;;;;;1.07;0.90;;;;;;;7.54;100.00;95238.13;5062332;28;20256;-78
2023/11/24 02:31:44;;;;;;;0.70;0.70;;;;;;;7.53;100.00;95222.75;5051753;28;20211;-79
2023/11/24 02:34:14;;;;;;;0.67;0.67;;;;;;;7.41;100.00;95209.16;5042780;28;20220;-79
2023/11/24 02:36:55;;;;;;;0.67;0.60;;;;;;;7.39;100.00;95218.81;5042490;28;20916;-79
2023/11/24 02:39:49;;;;;;;0.70;0.70;;;;;;;7.64;99.58;95209.69;5061182;28;20565;-79
2023/11/24 02:42:20;;;;;;;0.83;0.60;;;;;;;7.57;99.49;95211.19;5065894;28;20224;-79
2023/11/24 02:44:51;;;;;;;0.40;0.40;;;;;;;7.52;99.48;95213.38;5081757;28;20742;-79
2023/11/24 02:47:21;;;;;;;1.10;0.60;;;;;;;7.39;99.99;95206.72;5066411;28;20189;-79
2023/11/24 02:49:49;;;;;;;0.60;0.50;;;;;;;7.55;99.24;95190.66;5067891;28;20204;-79
2023/11/24 02:52:33;;;;;;;0.73;0.70;;;;;;;7.62;98.61;95193.53;5072295;28;20197;-79
2023/11/24 02:55:08;;;;;;;0.80;0.70;;;;;;;7.82;97.58;95197.69;5074022;28;20202;-78
2023/11/24 02:57:39;;;;;;;0.70;0.70;;;;;;;7.73;97.77;95205.47;5075727;28;20192;-79
2023/11/24 03:00:20;;;;;;;1.60;0.70;;;;;;;7.70;97.95;95195.41;5084925;28;20184;-79
2023/11/24 03:02:59;;;;;;;1.40;0.60;;;;;;;7.70;98.78;95191.06;5056285;28;20212;-79
2023/11/24 03:05:34;;;;;;;0.60;0.60;;;;;;;7.44;99.75;95175.31;5064674;28;20185;-78
2023/11/24 03:08:05;;;;;;;0.83;0.60;;;;;;;7.73;98.47;95179.63;5044544;28;20273;-79
2023/11/24 03:10:39;;;;;;;0.60;0.50;;;;;;;7.64;98.53;95170.94;5068096;28;20211;-78
2023/11/24 03:13:07;;;;;;;0.50;0.50;;;;;;;7.68;98.42;95177.44;5063660;28;20213;-78
2023/11/24 03:15:37;;;;;;;0.70;0.60;;;;;;;7.51;98.80;95147.97;5069654;28;20272;-78
2023/11/24 03:18:23;;;;;;;0.47;0.47;;;;;;;7.60;98.55;95159.25;5078760;28;20181;-78
2023/11/24 03:20:51;;;;;;;0.50;0.50;;;;;;;7.65;97.92;95172.56;5080517;28;20211;-78
2023/11/24 03:23:21;;;;;;;0.60;0.60;;;;;;;7.74;97.08;95168.31;5066704;28;20277;-79
2023/11/24 03:25:49;;;;;;;0.60;0.60;;;;;;;7.71;97.59;95163.44;5037709;28;20225;-79
2023/11/24 03:28:16;;;;;;;0.90;0.90;;;;;;;7.68;98.08;95167.09;5055075;28;20185;-78
2023/11/24 03:30:51;;;;;;;0.63;0.63;;;;;;;7.62;98.96;95162.50;5070084;28;20204;-79
2023/11/24 03:33:30;;;;;;;0.73;0.73;;;;;;;7.63;99.76;95175.28;5052842;28;20199;-79
2023/11/24 03:35:57;;;;;;;0.70;0.70;;;;;;;7.60;100.00;95143.75;5079682;28;20280;-79
2023/11/24 03:38:45;;;;;;;0.70;0.70;;;;;;;7.72;100.00;95144.38;5079222;28;20205;-78
2023/11/24 03:41:13;;;;;;;1.23;0.80;;;;;;;7.64;100.00;95151.06;5063358;28;20706;-79
2023/11/24 03:43:54;;;;;;;0.60;0.60;;;;;;;7.64;100.00;95143.31;5068516;28;20572;-78
2023/11/24 03:53:06;;;;;;;0.40;0.40;;;;;;;7.38;100.00;95109.50;5068749;28;20278;-79
2023/11/24 03:56:19;;;;;;;0.40;0.40;;;;;;;7.44;100.00;95123.66;5068230;28;20188;-78
2023/11/24 03:59:42;;;;;;;0.53;0.53;;;;;;;7.49;100.00;95126.59;4991008;28;20398;-78
2023/11/24 04:02:48;;;;;;;;;;;;;;;;;;;;;
2023/11/24 04:05:51;;;;;;;0.87;0.63;;;;;;;7.51;100.00;95098.03;4952256;28;20201;-79
2023/11/24 04:08:54;;;;;;;0.60;0.60;;;;;;;7.41;100.00;95097.25;4933826;29;20200;-78
2023/11/24 04:11:36;;;;;;;0.70;0.70;;;;;;;7.27;100.00;95095.94;4913405;29;20338;-78
2023/11/24 04:17:23;;;;;;;0.60;0.50;;;;;;;7.45;99.76;95109.78;4869379;29;20302;-78
2023/11/24 04:20:32;;;;;;;0.97;0.70;;;;;;;7.52;99.79;95118.59;4872940;29;20206;-79
2023/11/24 04:26:42;;;;;;;0.70;0.70;;;;;;;7.49;100.00;95118.84;4883686;29;20198;-78
2023/11/24 04:29:12;;;;;;;0.93;0.93;;;;;;;7.39;100.00;95105.97;4883968;29;20286;-79
2023/11/24 04:32:25;;;;;;;0.77;0.77;;;;;;;7.37;100.00;95094.97;4858628;29;20235;-77
2023/11/24 04:38:45;;;;;;;1.33;0.90;;;;;;;7.52;100.00;95084.19;4881078;29;20207;-79
2023/11/24 04:41:55;;;;;;;0.83;0.83;;;;;;;7.51;100.00;95101.47;4851477;29;20229;-79
2023/11/24 04:45:31;;;;;;;;;;;;;;;;;;;;;
2023/11/24 04:55:31;;;;;;;0.87;0.87;;;;;;;7.54;100.00;95085.69;4838132;29;20232;-79
2023/11/24 05:11:25;;;;;;;1.00;1.00;;;;;;;7.60;100.00;95069.63;4804421;29;20230;-79
2023/11/24 05:24:48;;;;;;;1.20;0.90;;;;;;;7.58;100.00;95060.34;4870646;29;20740;-79
2023/11/24 05:27:39;;;;;;;1.40;1.30;;;;;;;7.42;100.00;95057.53;4900162;29;20210;-78
2023/11/24 05:30:38;;;;;;;1.37;0.90;;;;;;;7.49;100.00;95053.44;4897878;29;20207;-80
2023/11/24 05:40:08;;;;;;;1.83;0.87;;;;;;;7.69;99.17;95069.72;4807647;29;20358;-78
2023/11/24 05:43:50;;;;;;;0.70;0.70;;;;;;;7.66;99.06;95081.97;4796696;29;20240;-79
2023/11/24 06:35:15;;;;;;;;;;;;;;;;;;;;;
2023/11/24 06:45:55;;;;;;;2.30;1.30;;;;;;;6.32;100.00;95073.38;4697120;30;20260;-79
2023/11/24 06:49:08;;;;;;;;;;;;;;;;;;;;;
2023/11/24 06:54:58;;;;;;;3.63;1.60;;;;;;;6.42;100.00;95057.91;4631716;30;20215;-79
2023/11/24 07:01:10;;;;;;;5.33;2.27;;;;;;;6.41;98.28;95061.44;4634470;30;20205;-78
2023/11/24 07:04:23;;;;;;;8.53;2.23;;;;;;;6.47;96.78;95064.28;4621812;30;20665;-78
2023/11/24 07:07:55;;;;;;;6.00;2.60;;;;;;;6.39;95.68;95071.06;4649787;30;20200;-77
2023/11/24 07:14:41;;;;;;;15.67;7.17;;;;;;;6.24;92.86;95058.56;4681869;30;20234;-78
2023/11/24 07:17:38;;;;;;;11.27;6.23;;;;;;;6.41;91.87;95053.69;4745311;29;20206;-77
2023/11/24 07:20:18;;;;;;;7.53;4.43;;;;;;;6.43;91.78;95054.38;4853903;29;20207;-78
2023/11/24 07:22:46;;;;;;;9.50;4.77;;;;;;;6.42;91.78;95058.72;4857330;29;20223;-78
2023/11/24 07:25:46;;;;;;;7.27;3.60;;;;;;;6.52;91.74;95045.81;4879569;29;20251;-78
2023/11/24 07:28:18;;;;;;;9.93;4.40;;;;;;;6.41;91.74;95040.81;4896250;29;20243;-77
2023/11/24 07:31:13;;;;;;;11.17;5.67;;;;;;;6.45;91.29;95052.50;4889835;29;20346;-77
2023/11/24 07:33:48;;;;;;;11.53;4.37;;;;;;;6.49;91.35;95040.94;4895878;29;20563;-77
2023/11/24 07:36:46;;;;;;;13.57;4.87;;;;;;;6.28;91.93;95040.25;4875855;29;20255;-78
2023/11/24 07:39:36;;;;;;;;;;;;;;;;;;;;;
2023/11/24 07:42:05;;;;;;;13.53;4.17;;;;;;;6.38;92.69;95023.84;4876420;29;20235;-79
2023/11/24 08:17:23;;;;;;;9.63;3.87;;;;;;;6.93;90.83;95012.94;4236951;23;20260;-78
2023/11/24 08:19:49;;;;;;;6.00;2.90;;;;;;;7.04;90.88;95020.53;5013305;28;20750;-78
2023/11/24 08:37:17;;;;;;;10.00;2.50;;;;;;;7.13;89.80;94993.06;5016899;28;20219;-76
2023/11/24 08:39:43;;;;;;;9.30;3.73;;;;;;;6.91;89.89;95005.34;4996939;28;20195;-76
2023/11/24 08:42:10;;;;;;;11.17;2.97;;;;;;;6.96;88.91;95005.72;5016708;28;20214;-77
2023/11/24 08:44:35;;;;;;;14.70;3.40;;;;;;;6.99;88.65;95002.91;4980268;28;20599;-77
2023/11/24 08:47:00;;;;;;;8.93;2.70;;;;;;;6.95;89.13;95003.28;5015124;28;20187;-79
2023/11/24 08:49:26;;;;;;;6.57;2.67;;;;;;;6.72;89.84;95002.78;5001274;28;20186;-78
2023/11/24 09:12:32;;;;;;;11.53;3.50;;;;;;;6.82;87.76;94970.84;2869076;23;20539;-77
2023/11/24 09:14:57;;;;;;;11.57;3.30;;;;;;;6.87;86.55;94962.69;5020617;28;20256;-79
2023/11/24 09:17:23;;;;;;;19.27;4.73;;;;;;;6.95;85.91;94967.97;5033107;28;20652;-77
2023/11/24 09:19:49;;;;;;;15.87;7.47;;;;;;;6.85;86.56;94968.94;5022904;28;20184;-78
2023/11/24 09:32:31;;;;;;;10.70;3.30;;;;;;;7.19;85.42;94956.38;5034996;28;20230;-79
2023/11/24 09:34:56;;;;;;;14.47;3.10;;;;;;;7.37;85.26;94954.66;5036697;28;20212;-78
2023/11/24 09:37:22;;;;;;;12.20;4.23;;;;;;;7.36;85.61;94955.63;5014371;28;20439;-78
2023/11/24 09:39:47;;;;;;;15.87;5.60;;;;;;;7.27;86.17;94946.94;5013666;28;20278;-79
2023/11/24 09:42:14;;;;;;;15.67;5.17;;;;;;;6.96;86.69;94951.53;5030539;28;20225;-79
2023/11/24 09:44:40;;;;;;;15.83;4.73;;;;;;;7.06;86.25;94954.88;5031623;28;20175;-77
2023/11/24 09:47:06;;;;;;;14.87;4.47;;;;;;;6.95;86.64;94947.31;5033215;28;20181;-79
2023/11/24 09:49:32;;;;;;;15.13;5.97;;;;;;;6.66;87.00;94941.41;5014755;28;20186;-79
2023/11/24 09:51:59;;;;;;;16.57;11.00;;;;;;;6.90;86.40;94930.66;5014700;28;20202;-79
2023/11/24 09:54:26;;;;;;;16.83;6.70;;;;;;;6.92;87.12;94926.16;5014019;28;20244;-77
2023/11/24 09:56:52;;;;;;;11.53;4.20;;;;;;;7.03;87.38;94920.81;5035360;28;20182;-78
2023/11/24 09:59:18;;;;;;;12.30;4.77;;;;;;;7.03;86.63;94913.88;5018793;28;20183;-77
2023/11/24 10:01:47;;;;;;;10.40;3.60;;;;;;;6.94;86.89;94904.41;5040087;28;20214;-77
2023/11/24 10:04:12;;;;;;;8.53;4.10;;;;;;;7.09;85.62;94917.66;5005459;28;20186;-77
2023/11/24 10:06:39;;;;;;;15.77;3.90;;;;;;;7.14;85.12;94905.13;5037689;28;20193;-77
2023/11/24 10:09:15;;;;;;;7.90;3.00;;;;;;;7.05;85.03;94888.72;5002644;28;20193;-81
2023/11/24 10:11:40;;;;;;;14.10;4.27;;;;;;;7.13;84.63;94879.47;5030094;28;20551;-79
2023/11/24 10:14:12;;;;;;;11.23;3.40;;;;;;;7.15;84.51;94874.97;5012999;28;20198;-77
2023/11/24 10:16:40;;;;;;;11.40;4.17;;;;;;;7.15;83.54;94874.97;5016343;28;20187;-79
2023/11/24 10:19:10;;;;;;;15.63;3.47;;;;;;;7.19;83.26;94865.97;5023429;28;20193;-78
2023/11/24 11:31:33;;;;;;;12.43;3.80;;;;;;;6.88;79.89;94764.75;5044787;28;20211;-78
2023/11/24 11:34:09;;;;;;;10.83;3.00;;;;;;;7.03;79.85;94763.34;5057466;28;20203;-79
2023/11/24 11:36:34;;;;;;;13.17;2.60;;;;;;;6.85;81.44;94754.75;5035371;28;20256;-79
2023/11/24 11:38:59;;;;;;;17.80;3.43;;;;;;;6.58;82.22;94752.97;5023516;28;20235;-79
2023/11/24 11:44:19;;;;;;;12.10;3.23;;;;;;;6.63;83.33;94755.94;5250631;23;20714;-78
2023/11/24 12:25:25;;;;;;;16.47;5.67;;;;;;;5.95;87.45;94702.03;1232475;23;20522;-77
2023/11/24 12:27:50;;;;;;;14.27;7.83;;;;;;;6.04;87.83;94697.81;5019113;28;20280;-77
2023/11/24 12:30:16;;;;;;;13.80;9.00;;;;;;;6.09;87.46;94693.84;5040116;28;20205;-78
2023/11/24 13:23:03;;;;;;;16.87;4.60;;;;;;;4.88;90.07;94664.44;5084780;23;20241;-78
2023/11/24 13:25:28;;;;;;;13.23;4.73;;;;;;;5.07;90.33;94662.69;5014112;28;20186;-78
2023/11/24 13:27:54;;;;;;;12.17;4.97;;;;;;;5.05;90.89;94648.34;5003888;28;20802;-78
2023/11/24 13:30:21;;;;;;;17.23;5.70;;;;;;;5.12;89.65;94654.53;5021983;28;20213;-79
2023/11/24 13:32:47;;;;;;;9.83;3.13;;;;;;;4.92;89.59;94650.34;5024699;28;20198;-77
2023/11/24 13:35:15;;;;;;;11.60;3.63;;;;;;;5.22;89.08;94645.06;5027741;28;20269;-79
2023/11/24 13:37:47;;;;;;;12.20;4.10;;;;;;;5.25;88.98;94642.22;5030699;28;20194;-78
2023/11/24 13:40:12;;;;;;;20.43;4.93;;;;;;;5.14;89.47;94636.41;5030421;28;20190;-78
2023/11/24 13:42:38;;;;;;;18.03;6.23;;;;;;;5.33;89.00;94629.47;5005686;28;20211;-78
2023/11/24 13:45:06;;;;;;;10.03;3.80;;;;;;;5.04;89.14;94632.09;5011574;28;20198;-79
2023/11/24 13:47:31;;;;;;;13.90;5.10;;;;;;;4.87;88.83;94630.19;5026369;28;20375;-78
2023/11/24 13:49:58;;;;;;;13.70;4.77;;;;;;;5.04;87.80;94629.50;4992709;28;20266;-78
2023/11/24 13:52:23;;;;;;;12.53;4.23;;;;;;;5.25;87.85;94629.34;5028192;28;20264;-79
2023/11/24 13:54:50;;;;;;;13.10;4.57;;;;;;;5.40;87.01;94622.81;5026447;28;20191;-78
2023/11/24 13:57:16;;;;;;;14.63;5.10;;;;;;;5.39;86.43;94628.13;5012701;28;20224;-79
2023/11/24 13:59:41;;;;;;;14.23;4.43;;;;;;;5.39;86.70;94612.66;5014143;28;20529;-79
2023/11/24 14:02:07;;;;;;;14.57;5.10;;;;;;;5.64;85.97;94611.22;5002121;28;20233;-79
2023/11/24 14:04:33;;;;;;;13.70;4.23;;;;;;;5.58;86.33;94616.97;5013340;28;20221;-78
2023/11/24 14:06:59;;;;;;;11.40;3.63;;;;;;;5.35;86.49;94612.13;5017287;28;20241;-77
2023/11/24 14:09:31;;;;;;;10.10;4.07;;;;;;;5.45;86.64;94624.16;5013397;28;20273;-78
2023/11/24 14:12:00;;;;;;;16.30;4.20;;;;;;;5.43;86.49;94626.06;5030054;28;20252;-79
2023/11/24 14:14:27;;;;;;;9.43;3.53;;;;;;;5.37;86.66;94625.66;5014579;28;20182;-78
2023/11/24 14:16:52;;;;;;;9.90;4.30;;;;;;;5.05;87.16;94628.56;5026703;28;20252;-78
2023/11/24 14:19:18;;;;;;;12.97;4.27;;;;;;;5.15;87.51;94625.97;5013525;28;20265;-78
2023/11/24 14:21:43;;;;;;;7.73;3.27;;;;;;;5.35;87.04;94621.59;5012620;28;20206;-78
2023/11/24 14:24:13;;;;;;;11.53;2.80;;;;;;;5.20;87.96;94620.41;5009753;28;20679;-79
2023/11/24 14:26:44;;;;;;;8.33;3.50;;;;;;;5.09;88.15;94619.59;5027254;28;20198;-80
2023/11/24 14:29:10;;;;;;;8.30;2.90;;;;;;;5.14;88.11;94626.13;5028144;28;20195;-78
2023/11/24 15:45:23;;;;;;;;;;;;;;;;;;;;;
2023/11/24 15:48:39;;;;;;;1.10;0.73;;;;;;;1.87;93.91;94701.88;4959179;28;20322;-81
2023/11/24 15:51:33;;;;;;;1.70;1.33;;;;;;;1.84;94.13;94702.91;4959058;28;20224;-81
2023/11/24 15:54:46;;;;;;;1.00;1.00;;;;;;;1.89;94.12;94716.19;4984040;28;20630;-82
2023/11/24 15:58:12;;;;;;;0.80;0.80;;;;;;;1.86;93.88;94711.31;4937649;28;20204;-82
2023/11/24 17:34:24;;;;;;;7.53;3.33;;;;;;;2.39;93.68;94752.53;1303035;23;20495;-78
2023/11/24 17:46:07;;;;;;;5.40;2.50;;;;;;;2.48;92.80;94762.06;5648645;23;20246;-85
2023/11/24 17:48:33;;;;;;;5.70;2.70;;;;;;;2.38;92.54;94755.19;5014935;28;20187;-77
2023/11/24 17:51:02;;;;;;;8.63;2.90;;;;;;;2.20;93.49;94750.53;5007129;28;20210;-77
2023/11/24 17:53:30;;;;;;;4.77;2.80;;;;;;;2.35;92.76;94750.28;5024431;28;20216;-81
2023/11/24 17:55:59;;;;;;;8.00;2.97;;;;;;;2.33;92.63;94758.09;4994975;28;20187;-79
2023/11/24 17:58:25;;;;;;;5.43;2.87;;;;;;;2.35;92.56;94750.28;5040650;28;20183;-78
2023/11/24 18:00:51;;;;;;;6.43;3.20;;;;;;;2.26;92.40;94747.50;5024785;28;20202;-78
2023/11/24 19:08:36;;;;;;;3.63;1.70;;;;;;;2.28;89.83;94755.06;1302344;26;20218;-81
2023/11/24 19:11:05;;;;;;;3.40;2.00;;;;;;;2.37;88.99;94750.97;5040308;28;20197;-81
2023/11/24 19:13:33;;;;;;;4.83;1.73;;;;;;;2.34;89.38;94749.47;5000116;28;20179;-80
2023/11/24 19:16:00;;;;;;;8.20;2.10;;;;;;;2.27;89.48;94753.44;4996368;28;20274;-79
2023/11/24 19:18:27;;;;;;;4.93;1.97;;;;;;;2.37;89.41;94758.66;4998216;28;20545;-78
2023/11/24 19:20:53;;;;;;;8.10;2.00;;;;;;;2.32;88.93;94758.22;5003516;28;20187;-79
2023/11/24 22:59:02;;;;;;;3.93;1.40;;;;;;;2.02;84.79;94667.41;5017757;28;20214;-81
2023/11/24 23:01:28;;;;;;;3.07;1.80;;;;;;;2.15;84.11;94659.59;4997545;28;20720;-79
2023/11/24 23:03:55;;;;;;;2.87;1.33;;;;;;;1.89;84.55;94649.63;4997558;28;20892;-78
2023/11/24 23:06:22;;;;;;;3.97;1.30;;;;;;;2.02;85.11;94657.16;4988570;28;20191;-79
2023/11/24 23:08:53;;;;;;;5.57;1.53;;;;;;;2.17;85.23;94653.44;4994190;28;20648;-82
2023/11/24 23:11:19;;;;;;;3.60;1.80;;;;;;;2.14;85.78;94648.53;5009527;28;20179;-79
2023/11/24 23:13:46;;;;;;;5.57;1.83;;;;;;;2.14;86.58;94647.75;5002200;28;20655;-79
2023/11/24 23:16:12;;;;;;;5.27;1.93;;;;;;;1.96;87.11;94645.66;4983289;28;20271;-78
2023/11/24 23:18:41;;;;;;;4.57;2.07;;;;;;;2.07;86.99;94646.56;5007001;28;20182;-78
2023/11/24 23:21:09;;;;;;;11.10;2.57;;;;;;;2.01;86.58;94639.34;5006574;28;20199;-79
2023/11/24 23:23:35;;;;;;;3.77;1.53;;;;;;;2.06;85.55;94644.94;5015790;28;20570;-80
2023/11/24 23:26:00;;;;;;;3.13;1.60;;;;;;;2.14;85.53;94655.41;4999845;28;21081;-78
2023/11/24 23:28:26;;;;;;;4.53;2.07;;;;;;;2.11;86.26;94674.38;5027085;28;20183;-78
2023/11/24 23:30:52;;;;;;;4.70;1.63;;;;;;;2.12;86.47;94662.38;5007654;28;20217;-79
2023/11/24 23:33:19;;;;;;;2.70;1.60;;;;;;;1.90;87.84;94674.28;5005815;28;20618;-79
2023/11/24 23:35:45;;;;;;;3.67;1.60;;;;;;;2.04;87.86;94665.56;5009061;28;20280;-78
2023/11/24 23:38:10;;;;;;;9.10;2.30;;;;;;;2.06;87.89;94671.38;4985149;28;20188;-79
2023/11/24 23:40:35;;;;;;;3.90;1.50;;;;;;;2.02;88.23;94666.59;5003695;28;20190;-79
2023/11/24 23:43:01;;;;;;;6.33;1.50;;;;;;;1.97;88.53;94680.56;4987510;28;20207;-78
2023/11/24 23:45:27;;;;;;;4.47;1.47;;;;;;;1.97;88.77;94685.69;5001516;28;20283;-79
2023/11/24 23:47:55;;;;;;;4.23;1.50;;;;;;;1.61;90.46;94670.56;5010180;28;20263;-78
2023/11/24 23:50:21;;;;;;;5.40;1.80;;;;;;;1.68;90.67;94684.53;5024117;28;20306;-78
